createdAt,value
2023-03-06T00:01:14.204Z,100136.17
2023-03-06T00:05:11.088Z,100136.28
2023-03-06T00:09:10.497Z,100136.14
2023-03-06T00:13:13.572Z,100131.76
2023-03-06T00:17:10.314Z,100127.53
2023-03-06T00:21:10.223Z,100118.84
2023-03-06T00:25:13.130Z,100115.59
2023-03-06T00:29:10.287Z,100112.22
2023-03-06T00:33:10.989Z,100109.69
2023-03-06T00:37:10.272Z,100100.44
2023-03-06T00:41:12.081Z,100094.65
2023-03-06T00:45:11.273Z,100094.39
2023-03-06T00:49:10.515Z,100086.36
2023-03-06T00:53:12.261Z,100082.12
2023-03-06T00:57:10.604Z,100078.89
2023-03-06T01:01:11.032Z,100081.05
2023-03-06T01:05:12.542Z,100077.97
2023-03-06T01:09:10.379Z,100078.54999999999
2023-03-06T01:13:10.537Z,100075.48000000001
2023-03-06T01:17:10.510Z,100075.89
2023-03-06T01:21:11.485Z,100072.53
2023-03-06T01:25:10.816Z,100072.53
2023-03-06T01:29:10.569Z,100062.69
2023-03-06T01:33:10.537Z,100054.96
2023-03-06T01:37:10.441Z,100054.08
2023-03-06T01:41:14.629Z,100052.03
2023-03-06T01:45:30.329Z,100050.35
2023-03-06T01:49:14.288Z,100045.12
2023-03-06T01:53:12.184Z,100045.76
2023-03-06T01:57:13.720Z,100036.19
2023-03-06T02:01:11.911Z,100037.58
2023-03-06T02:05:11.047Z,100034.17
2023-03-06T02:09:12.063Z,100032.09000000001
2023-03-06T02:13:10.574Z,100017.69
2023-03-06T02:17:12.881Z,100018.14
2023-03-06T02:21:19.168Z,100014.83
2023-03-06T02:25:22.705Z,100008.62
2023-03-06T02:29:10.907Z,100006.0
2023-03-06T02:33:13.039Z,100002.85
2023-03-06T02:37:10.602Z,99997.19
2023-03-06T02:41:10.618Z,99996.15
2023-03-06T02:57:11.314Z,99971.83
2023-03-06T03:01:11.403Z,99969.81
2023-03-06T03:09:10.802Z,99961.81
2023-03-06T03:13:10.998Z,99953.54999999999
2023-03-06T03:17:10.692Z,99952.69
2023-03-06T03:21:12.569Z,99946.41
2023-03-06T03:25:10.942Z,99941.2
2023-03-06T03:29:10.906Z,99936.41
2023-03-06T03:33:11.940Z,99930.67
2023-03-06T03:37:11.024Z,99923.72
2023-03-06T03:41:11.162Z,99920.11
2023-03-06T03:45:10.843Z,99920.84
2023-03-06T03:49:11.160Z,99918.08
2023-03-06T03:53:11.085Z,99917.47
2023-03-06T03:57:10.857Z,99912.14
2023-03-06T04:09:10.993Z,99899.72
2023-03-06T04:13:10.916Z,99887.77
2023-03-06T04:17:10.840Z,99885.35
2023-03-06T04:25:11.104Z,99871.56999999999
2023-03-06T04:29:11.106Z,99861.58
2023-03-06T04:33:10.958Z,99858.83
2023-03-06T04:37:18.211Z,99857.28
2023-03-06T04:41:10.991Z,99851.84000000001
2023-03-06T04:45:11.134Z,99845.81
2023-03-06T04:53:11.119Z,99832.64
2023-03-06T04:57:13.081Z,99833.73
2023-03-06T05:01:11.594Z,99838.16
2023-03-06T05:05:11.933Z,99824.59
2023-03-06T05:09:11.149Z,99819.34
2023-03-06T05:13:11.145Z,99816.8
2023-03-06T05:21:11.523Z,99814.61
2023-03-06T05:25:11.156Z,99813.19
2023-03-06T05:29:11.120Z,99813.07
2023-03-06T05:33:11.035Z,99809.48
2023-03-06T05:37:11.166Z,99799.94
2023-03-06T05:41:12.017Z,99790.11
2023-03-06T05:45:11.448Z,99792.5
2023-03-06T05:49:11.118Z,99791.54999999999
2023-03-06T05:57:11.214Z,99779.39
2023-03-06T06:01:13.652Z,99787.94
2023-03-06T06:05:13.137Z,99788.64
2023-03-06T06:09:13.836Z,99779.26999999999
2023-03-06T06:13:11.469Z,99777.09999999999
2023-03-06T06:17:11.698Z,99768.08
2023-03-06T06:21:13.574Z,99767.74
2023-03-06T06:25:11.251Z,99757.11
2023-03-06T06:29:12.596Z,99758.42
2023-03-06T06:41:36.084Z,99749.94
2023-03-06T06:45:11.929Z,99750.07
2023-03-06T06:49:11.789Z,99750.27
2023-03-06T07:01:12.730Z,99735.56999999999
2023-03-06T07:05:11.433Z,99734.31
2023-03-06T07:13:11.431Z,99734.72
2023-03-06T07:17:11.531Z,99730.07
2023-03-06T07:21:11.994Z,99723.77
2023-03-06T07:25:11.520Z,99721.91
2023-03-06T07:29:11.528Z,99716.92
2023-03-06T07:33:12.056Z,99708.94
2023-03-06T07:37:11.516Z,99703.66
2023-03-06T07:41:12.813Z,99694.86
2023-03-06T07:45:12.250Z,99697.31
2023-03-06T07:49:11.493Z,99692.38
2023-03-06T07:53:11.674Z,99683.98
2023-03-06T07:57:12.309Z,99693.31
2023-03-06T08:01:13.797Z,99694.41
2023-03-06T08:05:14.003Z,99696.89
2023-03-06T08:09:11.658Z,99687.05
2023-03-06T08:13:11.463Z,99680.11
2023-03-06T08:17:11.928Z,99668.87000000001
2023-03-06T08:21:13.232Z,99671.36
2023-03-06T08:25:12.461Z,99669.51000000001
2023-03-06T08:29:12.250Z,99673.79
2023-03-06T08:33:11.626Z,99673.47
2023-03-06T08:37:11.642Z,99662.73
2023-03-06T08:41:12.099Z,99668.5
2023-03-06T08:45:11.525Z,99659.36
2023-03-06T08:49:12.503Z,99666.14
2023-03-06T08:53:11.676Z,99659.12
2023-03-06T08:57:11.731Z,99654.29000000001
2023-03-06T09:01:13.925Z,99656.37000000001
2023-03-06T09:05:12.021Z,99648.06999999999
2023-03-06T09:13:11.702Z,99650.62000000001
2023-03-06T09:17:11.760Z,99654.25
2023-03-06T09:21:11.854Z,99647.75
2023-03-06T09:25:12.820Z,99644.86
2023-03-06T09:29:12.066Z,99643.26
2023-03-06T09:33:11.716Z,99642.61
2023-03-06T09:37:12.065Z,99631.39
2023-03-06T09:41:21.058Z,99623.89
2023-03-06T09:45:12.537Z,99619.55
2023-03-06T09:49:31.638Z,99615.93000000001
2023-03-06T09:53:28.307Z,99613.16
2023-03-06T09:57:19.222Z,99610.97
2023-03-06T10:01:16.572Z,99612.15
2023-03-06T10:05:18.656Z,99607.45
2023-03-06T10:09:15.951Z,99601.57
2023-03-06T10:13:17.616Z,99599.59
2023-03-06T10:17:17.007Z,99596.8
2023-03-06T10:21:26.119Z,99594.59000000001
2023-03-06T10:29:25.058Z,99591.28
2023-03-06T10:33:21.534Z,99589.79000000001
2023-03-06T10:37:18.722Z,99582.01000000001
2023-03-06T10:41:22.755Z,99574.23999999999
2023-03-06T10:45:14.909Z,99567.25
2023-03-06T10:49:24.968Z,99565.44
2023-03-06T10:53:20.510Z,99560.42
2023-03-06T10:57:24.938Z,99559.25
2023-03-06T11:01:19.399Z,99557.68000000001
2023-03-06T11:05:19.067Z,99556.14
2023-03-06T11:09:15.029Z,99549.5
2023-03-06T11:13:21.513Z,99550.78
2023-03-06T11:17:26.824Z,99545.89
2023-03-06T11:21:23.607Z,99547.34
2023-03-06T11:25:15.479Z,99540.77
2023-03-06T11:29:23.663Z,99537.09
2023-03-06T11:33:19.380Z,99537.62000000001
2023-03-06T11:37:23.905Z,99530.95
2023-03-06T11:41:20.235Z,99525.44
2023-03-06T11:45:24.163Z,99519.45
2023-03-06T11:49:21.307Z,99511.3
2023-03-06T11:53:15.399Z,99502.62
2023-03-06T11:57:16.752Z,99497.42
2023-03-06T12:01:21.512Z,99490.0
2023-03-06T12:05:29.674Z,99493.58
2023-03-06T12:09:24.289Z,99481.11
2023-03-06T12:13:28.941Z,99476.26000000001
2023-03-06T12:17:18.355Z,99475.67
2023-03-06T12:21:19.524Z,99469.31
2023-03-06T12:25:21.342Z,99461.73999999999
2023-03-06T12:29:22.164Z,99461.44
2023-03-06T12:37:24.366Z,99452.31999999999
2023-03-06T12:41:23.272Z,99441.33
2023-03-06T12:45:26.557Z,99439.54
2023-03-06T12:49:31.809Z,99436.44
2023-03-06T12:53:18.124Z,99426.47
2023-03-06T12:57:13.879Z,99428.08
2023-03-06T13:01:18.968Z,99416.86
2023-03-06T13:05:28.701Z,99407.03
2023-03-06T13:09:19.209Z,99409.0
2023-03-06T13:13:30.680Z,99396.34999999999
2023-03-06T13:17:24.243Z,99393.24
2023-03-06T13:21:32.082Z,99379.1
2023-03-06T13:25:32.460Z,99384.27
2023-03-06T13:29:32.268Z,99385.75
2023-03-06T13:33:33.328Z,99372.81
2023-03-06T13:41:26.522Z,99370.45000000001
2023-03-06T13:45:15.774Z,99369.42
2023-03-06T13:49:20.732Z,99363.94
2023-03-06T13:53:32.158Z,99360.13
2023-03-06T14:01:22.223Z,99361.95
2023-03-06T14:05:14.515Z,99366.33
2023-03-06T14:09:24.131Z,99362.01999999999
2023-03-06T14:13:17.945Z,99354.21
2023-03-06T14:17:22.819Z,99352.34
2023-03-06T14:21:14.922Z,99350.26000000001
2023-03-06T14:25:17.017Z,99348.46
2023-03-06T14:29:21.707Z,99344.08
2023-03-06T14:33:12.840Z,99337.78
2023-03-06T14:37:21.681Z,99332.79
2023-03-06T14:41:22.355Z,99327.45
2023-03-06T14:45:15.357Z,99324.64
2023-03-06T14:49:13.925Z,99323.92
2023-03-06T14:53:15.716Z,99330.76999999999
2023-03-06T14:57:17.562Z,99322.27
2023-03-06T15:01:14.368Z,99310.44
2023-03-06T15:05:20.161Z,99305.52
2023-03-06T15:09:16.868Z,99296.42
2023-03-06T15:13:21.188Z,99291.09
2023-03-06T15:17:19.743Z,99285.83
2023-03-06T15:21:17.148Z,99284.86
2023-03-06T15:25:20.074Z,99281.36
2023-03-06T15:33:23.647Z,99279.06
2023-03-06T15:37:26.135Z,99281.23000000001
2023-03-06T15:41:22.382Z,99278.5
2023-03-06T15:45:15.622Z,99274.41
2023-03-06T15:49:15.832Z,99272.86
2023-03-06T15:53:12.848Z,99264.39
2023-03-06T16:01:16.399Z,99253.0
2023-03-06T16:05:14.669Z,99254.81
2023-03-06T16:09:13.506Z,99252.79000000001
2023-03-06T16:13:15.404Z,99249.61
2023-03-06T16:17:13.776Z,99250.62000000001
2023-03-06T16:21:13.213Z,99248.06999999999
2023-03-06T16:25:13.755Z,99251.45
2023-03-06T16:29:15.781Z,99243.6
2023-03-06T16:33:13.355Z,99238.44
2023-03-06T16:37:13.154Z,99240.31999999999
2023-03-06T16:41:13.373Z,99229.75
2023-03-06T16:45:13.792Z,99235.05
2023-03-06T16:49:15.362Z,99230.06
2023-03-06T16:53:13.395Z,99230.62999999999
2023-03-06T17:01:15.730Z,99235.24
2023-03-06T17:05:13.392Z,99235.38
2023-03-06T17:09:13.417Z,99222.23
2023-03-06T17:13:13.131Z,99223.78
2023-03-06T17:17:13.121Z,99237.19
2023-03-06T17:21:14.562Z,99238.26000000001
2023-03-06T17:25:13.301Z,99240.09
2023-03-06T17:29:13.216Z,99239.48000000001
2023-03-06T17:33:13.250Z,99243.25
2023-03-06T17:37:13.053Z,99238.04000000001
2023-03-06T17:41:13.714Z,99237.59
2023-03-06T17:45:13.163Z,99243.19
2023-03-06T17:49:13.218Z,99239.97
2023-03-06T17:53:13.431Z,99242.11
2023-03-06T17:57:13.290Z,99234.83
2023-03-06T18:01:15.073Z,99237.45
2023-03-06T18:05:13.442Z,99234.83
2023-03-06T18:09:13.110Z,99235.96
2023-03-06T18:13:13.267Z,99234.07999999999
2023-03-06T18:17:13.380Z,99237.51
2023-03-06T18:21:15.141Z,99237.83
2023-03-06T18:25:13.138Z,99240.01
2023-03-06T18:29:13.413Z,99237.33
2023-03-06T18:33:13.232Z,99238.55
2023-03-06T18:37:13.272Z,99243.52
2023-03-06T18:41:13.610Z,99244.24
2023-03-06T18:45:13.416Z,99249.67
2023-03-06T18:53:13.313Z,99241.24
2023-03-06T18:57:13.189Z,99238.48000000001
2023-03-06T19:01:13.673Z,99235.29
2023-03-06T19:05:13.242Z,99230.28
2023-03-06T19:09:13.343Z,99229.85
2023-03-06T19:13:13.535Z,99223.27
2023-03-06T19:17:13.508Z,99224.68000000001
2023-03-06T19:21:15.585Z,99221.25
2023-03-06T19:25:13.653Z,99224.54000000001
2023-03-06T19:29:13.446Z,99214.29000000001
2023-03-06T19:33:14.541Z,99209.74
2023-03-06T19:37:13.379Z,99211.39
2023-03-06T19:41:14.459Z,99210.08
2023-03-06T19:45:13.547Z,99213.09
2023-03-06T19:49:16.995Z,99207.72
2023-03-06T19:53:14.882Z,99209.09
2023-03-06T19:57:13.506Z,99203.36
2023-03-06T20:01:15.968Z,99194.12
2023-03-06T20:05:13.525Z,99190.45
2023-03-06T20:09:13.430Z,99186.44
2023-03-06T20:13:13.459Z,99186.94
2023-03-06T20:17:13.530Z,99183.23000000001
2023-03-06T20:21:14.582Z,99184.44
2023-03-06T20:25:13.650Z,99180.76999999999
2023-03-06T20:29:14.177Z,99179.29000000001
2023-03-06T20:33:14.360Z,99180.02
2023-03-06T20:37:13.718Z,99181.59000000001
2023-03-06T20:41:14.282Z,99180.02
2023-03-06T20:45:14.573Z,99181.98
2023-03-06T20:49:14.110Z,99185.53
2023-03-06T20:53:13.673Z,99186.23999999999
2023-03-06T20:57:13.552Z,99188.76000000001
2023-03-06T21:01:17.763Z,99189.70000000001
2023-03-06T21:05:13.756Z,99183.0
2023-03-06T21:09:15.126Z,99183.7
2023-03-06T21:13:13.937Z,99187.09
2023-03-06T21:17:14.007Z,99188.05
2023-03-06T21:21:15.688Z,99185.86
2023-03-06T21:25:13.949Z,99187.26000000001
2023-03-06T21:29:13.811Z,99187.26000000001
2023-03-06T21:33:15.143Z,99181.01000000001
2023-03-06T21:37:13.788Z,99175.84000000001
2023-03-06T21:41:16.022Z,99171.66
2023-03-06T21:45:13.789Z,99172.53
2023-03-06T21:49:13.768Z,99163.59
2023-03-06T21:53:13.803Z,99159.59
2023-03-06T21:57:13.881Z,99162.51
2023-03-06T22:01:17.133Z,99167.17
2023-03-06T22:05:13.886Z,99173.97
2023-03-06T22:09:15.183Z,99168.33
2023-03-06T22:13:13.966Z,99167.1
2023-03-06T22:17:13.806Z,99159.79999999999
2023-03-06T22:21:16.912Z,99154.31999999999
2023-03-06T22:25:13.894Z,99156.3
2023-03-06T22:29:13.902Z,99150.16
2023-03-06T22:33:13.867Z,99144.09000000001
2023-03-06T22:37:14.020Z,99141.13
2023-03-06T22:41:16.495Z,99141.69
2023-03-06T22:45:14.329Z,99134.44
2023-03-06T22:49:15.822Z,99132.15
2023-03-06T22:53:13.995Z,99128.78
2023-03-06T22:57:13.853Z,99122.72
2023-03-06T23:01:16.431Z,99122.41
2023-03-06T23:05:14.307Z,99123.47
2023-03-06T23:09:16.274Z,99122.0
2023-03-06T23:13:14.097Z,99129.71
2023-03-06T23:17:14.086Z,99118.55
2023-03-06T23:25:14.112Z,99111.37999999999
2023-03-06T23:29:13.954Z,99109.83
2023-03-06T23:33:14.146Z,99102.17
2023-03-06T23:37:14.073Z,99102.12
2023-03-06T23:41:17.075Z,99100.28
2023-03-06T23:45:14.097Z,99096.7
2023-03-06T23:49:14.325Z,99090.69
2023-03-06T23:53:14.780Z,99091.27
2023-03-06T23:57:14.031Z,99094.0
